createdAt,value
2023-05-05T00:01:02.437Z,17.50
2023-05-05T00:03:30.400Z,17.30
2023-05-05T00:05:58.190Z,17.40
2023-05-05T00:08:25.697Z,17.60
2023-05-05T00:10:53.867Z,17.90
2023-05-05T00:13:22.031Z,18.00
2023-05-05T00:15:51.473Z,18.10
2023-05-05T00:18:19.706Z,18.00
2023-05-05T00:20:47.877Z,17.90
2023-05-05T00:23:16.448Z,17.70
2023-05-05T00:25:44.086Z,17.60
2023-05-05T00:28:11.701Z,17.20
2023-05-05T00:30:40.295Z,17.10
2023-05-05T00:33:07.932Z,17.00
2023-05-05T00:35:36.025Z,16.90
2023-05-05T00:38:05.177Z,16.80
2023-05-05T00:40:32.853Z,16.70
2023-05-05T00:43:00.292Z,16.80
2023-05-05T00:45:27.987Z,16.60
2023-05-05T00:47:59.093Z,16.60
2023-05-05T00:50:29.309Z,16.50
2023-05-05T00:53:00.484Z,16.40
2023-05-05T00:55:29.861Z,16.40
2023-05-05T00:58:01.308Z,16.10
2023-05-05T01:00:30.209Z,16.10
2023-05-05T01:02:58.138Z,16.00
2023-05-05T01:05:28.012Z,15.90
2023-05-05T01:08:03.182Z,15.90
2023-05-05T01:10:33.997Z,15.80
2023-05-05T01:13:31.724Z,15.70
2023-05-05T01:16:25.602Z,15.50
2023-05-05T01:19:04.154Z,15.50
2023-05-05T01:21:38.779Z,15.40
2023-05-05T01:24:35.171Z,15.30
2023-05-05T01:27:48.496Z,15.20
2023-05-05T01:30:24.557Z,15.20
2023-05-05T01:32:56.884Z,15.20
2023-05-05T01:35:32.086Z,15.10
2023-05-05T01:38:06.918Z,15.10
2023-05-05T01:40:39.502Z,14.90
2023-05-05T01:43:08.887Z,14.70
2023-05-05T01:45:40.090Z,14.60
2023-05-05T01:48:09.163Z,14.70
2023-05-05T01:50:37.549Z,14.60
2023-05-05T01:53:06.419Z,14.40
2023-05-05T01:55:34.716Z,14.40
2023-05-05T01:58:03.935Z,14.20
2023-05-05T02:00:33.583Z,14.10
2023-05-05T02:03:04.626Z,14.10
2023-05-05T02:05:33.965Z,14.20
2023-05-05T02:08:03.313Z,14.00
2023-05-05T02:10:31.188Z,14.00
2023-05-05T02:13:04.461Z,13.90
2023-05-05T02:15:33.883Z,13.90
2023-05-05T02:18:05.778Z,13.70
2023-05-05T02:20:34.150Z,13.70
2023-05-05T02:23:01.939Z,13.70
2023-05-05T02:25:42.206Z,13.70
2023-05-05T02:28:21.954Z,13.80
2023-05-05T02:31:00.341Z,13.90
2023-05-05T02:33:32.727Z,13.70
2023-05-05T02:36:12.609Z,13.70
2023-05-05T02:38:44.470Z,13.60
2023-05-05T02:41:17.077Z,13.80
2023-05-05T02:43:46.571Z,13.70
2023-05-05T02:46:14.118Z,13.80
2023-05-05T02:48:41.919Z,13.80
2023-05-05T02:51:09.527Z,13.70
2023-05-05T02:53:37.065Z,13.60
2023-05-05T02:56:13.438Z,13.50
2023-05-05T02:58:59.493Z,13.40
2023-05-05T03:02:03.668Z,13.30
2023-05-05T03:05:13.660Z,13.30
2023-05-05T03:08:01.442Z,13.30
2023-05-05T03:10:38.436Z,13.20
2023-05-05T03:13:09.704Z,13.20
2023-05-05T03:15:43.398Z,13.20
2023-05-05T03:18:12.319Z,13.10
2023-05-05T03:20:40.938Z,12.90
2023-05-05T03:23:08.808Z,12.90
2023-05-05T03:25:46.723Z,12.80
2023-05-05T03:28:15.334Z,12.80
2023-05-05T03:30:42.957Z,12.80
2023-05-05T03:33:12.376Z,12.80
2023-05-05T03:35:39.979Z,12.80
2023-05-05T03:38:07.710Z,12.80
2023-05-05T03:40:43.547Z,12.80
2023-05-05T03:43:12.304Z,12.90
2023-05-05T03:45:39.957Z,12.90
2023-05-05T03:48:09.766Z,12.80
2023-05-05T03:50:37.822Z,12.90
2023-05-05T03:53:05.361Z,12.90
2023-05-05T03:55:32.890Z,12.80
2023-05-05T03:58:00.411Z,12.70
2023-05-05T04:00:28.314Z,12.70
2023-05-05T04:02:56.357Z,12.60
2023-05-05T04:05:24.053Z,12.50
2023-05-05T04:07:51.701Z,12.50
2023-05-05T04:10:19.152Z,12.60
2023-05-05T04:12:46.696Z,12.50
2023-05-05T04:15:14.236Z,12.50
2023-05-05T04:17:41.818Z,12.40
2023-05-05T04:20:10.337Z,12.40
2023-05-05T04:22:38.081Z,12.40
2023-05-05T04:25:06.259Z,12.40
2023-05-05T04:27:34.050Z,12.40
2023-05-05T04:30:01.627Z,12.50
2023-05-05T04:32:29.109Z,12.50
2023-05-05T04:34:56.698Z,12.60
2023-05-05T04:37:25.675Z,12.70
2023-05-05T04:39:53.246Z,12.70
2023-05-05T04:42:20.923Z,12.80
2023-05-05T04:44:48.390Z,13.00
2023-05-05T04:47:15.869Z,13.20
2023-05-05T04:49:43.349Z,13.20
2023-05-05T04:52:13.724Z,13.30
2023-05-05T04:54:41.334Z,13.50
2023-05-05T04:57:08.859Z,13.50
2023-05-05T04:59:36.813Z,13.70
2023-05-05T05:02:04.360Z,13.90
2023-05-05T05:04:32.023Z,14.10
2023-05-05T05:06:59.738Z,14.60
2023-05-05T05:09:27.416Z,15.10
2023-05-05T05:11:58.859Z,15.60
2023-05-05T05:14:28.317Z,16.10
2023-05-05T05:16:55.819Z,16.60
2023-05-05T05:19:23.295Z,17.90
2023-05-05T05:21:51.254Z,19.00
2023-05-05T05:24:18.752Z,20.10
2023-05-05T05:26:46.286Z,20.80
2023-05-05T05:29:13.838Z,21.70
2023-05-05T05:31:41.490Z,22.60
2023-05-05T05:34:10.719Z,22.80
2023-05-05T05:36:39.672Z,22.90
2023-05-05T05:39:07.240Z,23.50
2023-05-05T05:41:34.862Z,25.20
2023-05-05T05:44:02.455Z,27.00
2023-05-05T05:46:30.046Z,27.10
2023-05-05T05:48:57.815Z,26.80
2023-05-05T05:51:25.724Z,26.20
2023-05-05T05:53:53.384Z,25.70
2023-05-05T05:56:21.663Z,25.20
2023-05-05T05:58:49.209Z,24.20
2023-05-05T06:01:16.714Z,23.80
2023-05-05T06:03:44.330Z,22.70
2023-05-05T06:06:12.115Z,21.80
2023-05-05T06:08:39.707Z,21.80
2023-05-05T06:11:08.149Z,21.10
2023-05-05T06:13:35.958Z,20.60
2023-05-05T06:16:03.561Z,20.20
2023-05-05T06:18:31.098Z,19.50
2023-05-05T06:20:58.697Z,19.10
2023-05-05T06:23:26.240Z,19.00
2023-05-05T06:25:55.477Z,19.20
2023-05-05T06:28:23.237Z,19.20
2023-05-05T06:30:50.980Z,19.10
2023-05-05T06:33:18.492Z,19.30
2023-05-05T06:35:47.310Z,19.30
2023-05-05T06:38:14.910Z,19.60
2023-05-05T06:40:42.465Z,19.50
2023-05-05T06:43:10.106Z,19.70
2023-05-05T06:45:37.640Z,19.40
2023-05-05T06:48:05.299Z,19.50
2023-05-05T06:50:33.173Z,19.60
2023-05-05T06:53:01.278Z,20.30
2023-05-05T06:55:28.880Z,21.20
2023-05-05T06:57:56.729Z,22.90
2023-05-05T07:00:24.568Z,24.20
2023-05-05T07:02:52.077Z,24.50
2023-05-05T07:05:19.774Z,26.30
2023-05-05T07:07:57.456Z,27.90
2023-05-05T07:10:25.978Z,29.80
2023-05-05T07:12:55.047Z,28.10
2023-05-05T07:15:27.961Z,27.50
2023-05-05T07:17:56.927Z,27.30
2023-05-05T07:20:24.741Z,27.10
2023-05-05T07:22:52.374Z,27.90
2023-05-05T07:25:20.054Z,29.60
2023-05-05T07:27:47.656Z,30.10
2023-05-05T07:30:17.607Z,30.40
2023-05-05T07:32:46.876Z,30.80
2023-05-05T07:35:14.557Z,31.20
2023-05-05T07:37:42.229Z,31.30
2023-05-05T07:40:10.610Z,31.70
2023-05-05T07:42:38.371Z,31.50
2023-05-05T07:45:06.925Z,31.20
2023-05-05T07:47:34.491Z,30.00
2023-05-05T07:50:02.304Z,28.70
2023-05-05T07:52:44.342Z,27.90
2023-05-05T07:55:13.904Z,27.00
2023-05-05T07:57:41.651Z,25.70
2023-05-05T08:00:10.403Z,24.80
2023-05-05T08:02:38.224Z,24.00
2023-05-05T08:05:06.386Z,23.00
2023-05-05T08:07:34.203Z,22.30
2023-05-05T08:10:01.774Z,21.80
2023-05-05T08:12:29.279Z,21.70
2023-05-05T08:14:56.838Z,22.20
2023-05-05T08:17:26.408Z,22.30
2023-05-05T08:19:53.934Z,22.60
2023-05-05T08:22:24.477Z,22.50
2023-05-05T08:24:52.007Z,22.30
2023-05-05T08:27:19.465Z,22.40
2023-05-05T08:29:46.967Z,22.40
2023-05-05T08:32:16.420Z,21.90
2023-05-05T08:34:43.925Z,22.00
2023-05-05T08:37:11.589Z,22.10
2023-05-05T08:39:39.191Z,22.00
2023-05-05T08:42:06.779Z,22.00
2023-05-05T08:44:34.265Z,22.20
2023-05-05T08:47:02.873Z,22.20
2023-05-05T08:49:44.166Z,22.40
2023-05-05T08:52:15.964Z,22.40
2023-05-05T08:54:50.597Z,22.20
2023-05-05T08:57:28.515Z,22.50
2023-05-05T08:59:57.321Z,22.50
2023-05-05T09:02:28.736Z,22.70
2023-05-05T09:04:57.041Z,22.40
2023-05-05T09:07:25.265Z,21.90
2023-05-05T09:09:53.193Z,20.40
2023-05-05T09:12:22.547Z,19.50
2023-05-05T09:14:49.998Z,19.00
2023-05-05T09:17:25.485Z,18.50
2023-05-05T09:20:10.274Z,17.50
2023-05-05T09:22:38.797Z,16.80
2023-05-05T09:25:08.836Z,16.10
2023-05-05T09:27:37.904Z,15.90
2023-05-05T09:30:07.886Z,15.90
2023-05-05T09:32:49.088Z,15.70
2023-05-05T09:35:17.859Z,15.80
2023-05-05T09:37:45.630Z,16.00
2023-05-05T09:40:18.714Z,16.50
2023-05-05T09:42:46.825Z,16.70
2023-05-05T09:45:20.221Z,17.00
2023-05-05T09:47:47.926Z,17.00
2023-05-05T09:50:18.966Z,17.40
2023-05-05T09:53:01.061Z,17.50
2023-05-05T09:55:31.280Z,18.30
2023-05-05T09:58:20.071Z,18.30
2023-05-05T10:00:47.939Z,18.30
2023-05-05T10:03:16.248Z,19.00
2023-05-05T10:05:54.292Z,19.70
2023-05-05T10:08:24.868Z,20.80
2023-05-05T10:10:58.477Z,21.60
2023-05-05T10:13:26.384Z,21.90
2023-05-05T10:15:57.840Z,21.70
2023-05-05T10:18:27.542Z,21.60
2023-05-05T10:21:03.383Z,21.80
2023-05-05T10:23:33.984Z,23.30
2023-05-05T10:26:06.582Z,24.30
2023-05-05T10:28:44.939Z,24.70
2023-05-05T10:31:25.052Z,25.20
2023-05-05T10:34:00.580Z,25.80
2023-05-05T10:36:29.717Z,26.80
2023-05-05T10:38:58.027Z,26.70
2023-05-05T10:41:27.175Z,26.80
2023-05-05T10:43:59.644Z,27.40
2023-05-05T10:46:29.729Z,27.30
2023-05-05T10:49:10.500Z,27.30
2023-05-05T10:51:55.961Z,27.20
2023-05-05T10:54:46.033Z,27.00
2023-05-05T10:57:16.786Z,25.70
2023-05-05T10:59:44.426Z,25.90
2023-05-05T11:02:28.985Z,25.20
2023-05-05T11:05:21.768Z,24.30
2023-05-05T11:07:50.959Z,22.80
2023-05-05T11:10:23.877Z,21.90
2023-05-05T11:13:05.942Z,21.20
2023-05-05T11:15:37.692Z,20.80
2023-05-05T11:18:07.901Z,20.70
2023-05-05T11:20:39.929Z,20.30
2023-05-05T11:23:07.803Z,19.80
2023-05-05T11:25:35.717Z,19.80
2023-05-05T11:28:21.837Z,19.60
2023-05-05T11:30:55.244Z,19.30
2023-05-05T11:33:35.093Z,19.10
2023-05-05T11:36:06.689Z,18.90
2023-05-05T11:39:05.737Z,18.70
2023-05-05T11:41:33.580Z,18.70
2023-05-05T11:44:13.743Z,18.60
2023-05-05T11:47:02.105Z,18.80
2023-05-05T11:49:33.286Z,18.90
2023-05-05T11:52:12.741Z,19.40
2023-05-05T11:54:49.113Z,19.50
2023-05-05T11:57:20.026Z,19.80
2023-05-05T12:00:17.808Z,20.00
2023-05-05T12:02:45.540Z,20.50
2023-05-05T12:05:20.226Z,21.00
2023-05-05T12:07:48.064Z,21.10
2023-05-05T12:10:23.082Z,21.20
2023-05-05T12:12:51.022Z,21.40
2023-05-05T12:15:29.777Z,21.60
2023-05-05T12:17:57.567Z,21.70
2023-05-05T12:20:36.723Z,22.20
2023-05-05T12:23:04.859Z,22.30
2023-05-05T12:25:37.073Z,22.40
2023-05-05T12:28:06.649Z,22.40
2023-05-05T12:30:34.832Z,22.40
2023-05-05T12:33:04.053Z,22.50
2023-05-05T12:35:32.342Z,22.70
2023-05-05T12:38:00.182Z,23.10
2023-05-05T12:40:48.094Z,23.10
2023-05-05T12:43:34.438Z,23.00
2023-05-05T12:46:05.149Z,22.90
2023-05-05T12:48:33.328Z,23.10
2023-05-05T12:51:14.874Z,23.00
2023-05-05T12:53:42.730Z,23.70
2023-05-05T12:56:29.281Z,23.70
2023-05-05T12:58:57.403Z,22.70
2023-05-05T13:01:25.144Z,22.50
2023-05-05T13:04:13.019Z,22.50
2023-05-05T13:06:48.303Z,22.50
2023-05-05T13:09:30.602Z,22.20
2023-05-05T13:11:58.180Z,22.30
2023-05-05T13:14:25.879Z,22.20
2023-05-05T13:16:53.728Z,22.30
2023-05-05T13:19:21.320Z,22.00
2023-05-05T13:21:49.207Z,21.60
2023-05-05T13:26:47.755Z,21.20
2023-05-05T13:29:16.628Z,20.50
2023-05-05T13:31:45.971Z,20.50
2023-05-05T13:34:13.652Z,20.70
2023-05-05T13:36:41.277Z,21.20
2023-05-05T13:39:09.110Z,21.50
2023-05-05T13:41:36.749Z,21.40
2023-05-05T13:44:04.367Z,21.90
2023-05-05T13:46:31.927Z,22.30
2023-05-05T13:48:59.400Z,22.70
2023-05-05T13:51:26.984Z,23.10
2023-05-05T13:53:54.506Z,23.20
2023-05-05T13:56:26.182Z,23.10
2023-05-05T13:58:54.577Z,23.90
2023-05-05T14:01:22.365Z,23.60
2023-05-05T14:03:50.161Z,23.30
2023-05-05T14:06:17.860Z,23.00
2023-05-05T14:08:46.245Z,23.10
2023-05-05T14:11:14.035Z,22.90
2023-05-05T14:13:41.618Z,22.30
2023-05-05T14:16:09.164Z,22.30
2023-05-05T14:18:36.711Z,21.70
2023-05-05T14:21:04.461Z,21.90
2023-05-05T14:23:32.145Z,22.10
2023-05-05T14:25:59.742Z,22.10
2023-05-05T14:28:27.375Z,21.90
2023-05-05T14:30:55.006Z,21.80
2023-05-05T14:33:22.497Z,22.10
2023-05-05T14:35:50.081Z,21.80
2023-05-05T14:38:18.121Z,21.80
2023-05-05T14:40:45.993Z,21.70
2023-05-05T14:43:13.608Z,22.00
2023-05-05T14:45:41.549Z,22.10
2023-05-05T14:48:09.535Z,22.20
2023-05-05T14:50:37.392Z,22.60
2023-05-05T14:53:05.592Z,22.60
2023-05-05T14:55:33.901Z,22.20
2023-05-05T14:58:01.505Z,21.70
2023-05-05T15:00:29.142Z,21.40
2023-05-05T15:02:56.800Z,21.40
2023-05-05T15:05:24.397Z,21.30
2023-05-05T15:07:51.944Z,21.20
2023-05-05T15:10:21.720Z,21.30
2023-05-05T15:12:49.760Z,21.80
2023-05-05T15:15:17.407Z,22.00
2023-05-05T15:17:44.993Z,21.50
2023-05-05T15:20:12.883Z,21.40
2023-05-05T15:22:40.315Z,21.40
2023-05-05T15:25:12.368Z,21.40
2023-05-05T15:27:40.671Z,21.20
2023-05-05T15:30:08.629Z,21.10
2023-05-05T15:32:36.187Z,21.20
2023-05-05T15:35:04.168Z,21.50
2023-05-05T15:37:31.783Z,21.70
2023-05-05T15:39:59.283Z,21.80
2023-05-05T15:42:27.093Z,21.90
2023-05-05T15:44:54.959Z,22.20
2023-05-05T15:47:22.566Z,22.20
2023-05-05T15:49:50.100Z,21.80
2023-05-05T15:52:17.834Z,21.40
2023-05-05T15:54:45.522Z,21.20
2023-05-05T15:57:13.270Z,21.20
2023-05-05T15:59:41.491Z,21.20
2023-05-05T16:02:09.051Z,20.80
2023-05-05T16:04:36.652Z,20.70
2023-05-05T16:07:04.241Z,20.90
2023-05-05T16:09:31.729Z,21.10
2023-05-05T16:11:59.223Z,21.40
2023-05-05T16:14:28.279Z,21.50
2023-05-05T16:16:56.342Z,21.60
2023-05-05T16:19:26.828Z,21.40
2023-05-05T16:21:55.303Z,21.00
2023-05-05T16:24:23.058Z,20.60
2023-05-05T16:26:50.540Z,19.90
2023-05-05T16:29:18.102Z,19.60
2023-05-05T16:31:45.618Z,19.20
2023-05-05T16:34:13.472Z,19.10
2023-05-05T16:36:42.468Z,19.20
2023-05-05T16:39:12.057Z,19.30
2023-05-05T16:41:40.199Z,19.30
2023-05-05T16:44:07.783Z,19.40
2023-05-05T16:46:37.452Z,19.30
2023-05-05T16:49:05.224Z,19.10
2023-05-05T16:51:32.842Z,18.80
2023-05-05T16:54:00.274Z,18.60
2023-05-05T16:56:27.770Z,18.50
2023-05-05T16:58:55.353Z,18.50
2023-05-05T17:01:22.968Z,18.50
2023-05-05T17:03:50.735Z,18.60
2023-05-05T17:06:18.397Z,18.10
2023-05-05T17:08:45.941Z,17.80
2023-05-05T17:11:13.588Z,17.90
2023-05-05T17:13:41.364Z,17.90
2023-05-05T17:16:08.842Z,17.90
2023-05-05T17:18:37.260Z,18.10
2023-05-05T17:21:05.942Z,18.00
2023-05-05T17:23:33.528Z,18.00
2023-05-05T17:26:01.059Z,18.00
2023-05-05T17:28:28.580Z,18.10
2023-05-05T17:30:59.649Z,18.00
2023-05-05T17:33:27.197Z,18.40
2023-05-05T17:35:55.197Z,18.60
2023-05-05T17:38:22.733Z,18.30
2023-05-05T17:40:50.277Z,18.00
2023-05-05T17:43:17.800Z,18.10
2023-05-05T17:45:47.132Z,18.40
2023-05-05T17:48:14.640Z,18.50
2023-05-05T17:50:43.445Z,18.40
2023-05-05T17:53:11.433Z,18.30
2023-05-05T17:55:38.934Z,18.10
2023-05-05T17:58:06.490Z,18.00
2023-05-05T18:00:34.248Z,17.60
2023-05-05T18:03:01.798Z,17.20
2023-05-05T18:05:30.003Z,17.00
2023-05-05T18:07:57.532Z,17.20
2023-05-05T18:10:26.675Z,17.10
2023-05-05T18:12:54.550Z,17.00
2023-05-05T18:15:22.759Z,16.80
2023-05-05T18:17:51.149Z,16.70
2023-05-05T18:20:18.949Z,16.70
2023-05-05T18:22:46.976Z,16.70
2023-05-05T18:25:14.532Z,16.60
2023-05-05T18:27:42.170Z,16.50
2023-05-05T18:30:10.053Z,16.50
2023-05-05T18:32:38.449Z,16.40
2023-05-05T18:35:06.633Z,16.30
2023-05-05T18:37:34.233Z,16.20
2023-05-05T18:40:01.750Z,16.20
2023-05-05T18:42:30.690Z,16.10
2023-05-05T18:44:58.251Z,16.00
2023-05-05T18:47:26.637Z,16.10
2023-05-05T18:49:54.253Z,16.10
2023-05-05T18:52:21.879Z,16.10
2023-05-05T18:54:49.333Z,16.00
2023-05-05T18:57:16.903Z,15.90
2023-05-05T18:59:44.670Z,15.60
2023-05-05T19:02:12.202Z,15.60
2023-05-05T19:04:41.529Z,15.60
2023-05-05T19:07:09.308Z,15.50
2023-05-05T19:09:37.285Z,15.50
2023-05-05T19:12:05.248Z,15.40
2023-05-05T19:14:32.765Z,15.40
2023-05-05T19:17:01.607Z,15.30
2023-05-05T19:19:29.424Z,15.20
2023-05-05T19:21:58.224Z,15.20
2023-05-05T19:24:25.769Z,15.40
2023-05-05T19:26:53.429Z,15.50
2023-05-05T19:29:20.984Z,15.50
2023-05-05T19:31:48.488Z,15.60
2023-05-05T19:34:16.191Z,15.50
2023-05-05T19:36:43.687Z,15.30
2023-05-05T19:39:12.152Z,15.30
2023-05-05T19:41:40.797Z,15.30
2023-05-05T19:44:08.330Z,15.20
2023-05-05T19:46:35.949Z,15.10
2023-05-05T19:49:04.046Z,15.20
2023-05-05T19:51:32.014Z,15.30
2023-05-05T19:53:59.660Z,15.40
2023-05-05T19:56:27.219Z,15.40
2023-05-05T19:58:55.697Z,15.40
2023-05-05T20:01:23.574Z,15.50
2023-05-05T20:03:54.399Z,15.50
2023-05-05T20:06:22.412Z,15.50
2023-05-05T20:08:49.868Z,15.60
2023-05-05T20:11:17.944Z,15.60
2023-05-05T20:13:45.553Z,15.60
2023-05-05T20:16:13.567Z,15.50
2023-05-05T20:18:41.334Z,15.40
2023-05-05T20:21:09.089Z,15.40
2023-05-05T20:23:37.225Z,15.20
2023-05-05T20:26:04.773Z,15.20
2023-05-05T20:28:32.651Z,15.30
2023-05-05T20:31:01.176Z,15.20
2023-05-05T20:33:29.678Z,15.30
2023-05-05T20:35:57.392Z,15.40
2023-05-05T20:38:24.985Z,15.30
2023-05-05T20:40:52.545Z,15.40
2023-05-05T20:43:21.216Z,15.50
2023-05-05T20:45:48.681Z,15.50
2023-05-05T20:48:16.397Z,15.50
2023-05-05T20:50:44.115Z,15.40
2023-05-05T20:53:15.768Z,15.40
2023-05-05T20:55:43.557Z,15.40
2023-05-05T20:58:11.091Z,15.40
2023-05-05T21:00:38.691Z,15.40
2023-05-05T21:03:06.502Z,15.30
2023-05-05T21:05:34.177Z,15.30
2023-05-05T21:08:01.928Z,15.30
2023-05-05T21:10:29.566Z,15.40
2023-05-05T21:12:57.063Z,15.50
2023-05-05T21:15:25.099Z,15.40
2023-05-05T21:17:52.656Z,15.40
2023-05-05T21:20:21.128Z,15.50
2023-05-05T21:22:48.649Z,15.50
2023-05-05T21:25:21.129Z,15.40
2023-05-05T21:27:49.439Z,15.40
2023-05-05T21:30:17.612Z,15.40
2023-05-05T21:32:45.482Z,15.40
2023-05-05T21:35:13.063Z,15.40
2023-05-05T21:37:40.810Z,15.40
2023-05-05T21:40:13.652Z,15.30
2023-05-05T21:42:42.544Z,15.20
2023-05-05T21:45:11.694Z,14.90
2023-05-05T21:47:39.481Z,14.30
2023-05-05T21:50:07.609Z,14.10
2023-05-05T21:52:35.752Z,14.10
2023-05-05T21:55:04.073Z,14.30
2023-05-05T21:57:31.551Z,14.50
2023-05-05T21:59:59.063Z,14.50
2023-05-05T22:02:26.915Z,14.50
2023-05-05T22:04:54.484Z,14.50
2023-05-05T22:07:22.011Z,14.50
2023-05-05T22:09:49.603Z,14.50
2023-05-05T22:12:17.362Z,14.50
2023-05-05T22:14:44.883Z,14.30
2023-05-05T22:17:13.054Z,13.90
2023-05-05T22:19:40.593Z,14.00
2023-05-05T22:22:08.074Z,14.00
2023-05-05T22:24:35.620Z,14.30
2023-05-05T22:27:03.177Z,14.30
2023-05-05T22:29:30.745Z,14.30
2023-05-05T22:31:58.255Z,14.20
2023-05-05T22:34:25.994Z,14.10
2023-05-05T22:36:53.427Z,13.80
2023-05-05T22:39:21.056Z,13.50
2023-05-05T22:41:48.574Z,13.30
2023-05-05T22:44:16.059Z,13.10
2023-05-05T22:46:44.337Z,12.90
2023-05-05T22:49:11.892Z,12.90
2023-05-05T22:51:39.371Z,12.80
2023-05-05T22:54:07.079Z,12.90
2023-05-05T22:56:35.080Z,12.90
2023-05-05T22:59:02.841Z,12.90
2023-05-05T23:01:30.549Z,12.90
2023-05-05T23:03:58.183Z,12.70
2023-05-05T23:06:25.742Z,12.70
2023-05-05T23:08:53.424Z,12.70
2023-05-05T23:11:21.029Z,12.80
2023-05-05T23:13:48.543Z,13.00
2023-05-05T23:16:16.377Z,13.10
2023-05-05T23:18:44.084Z,13.30
2023-05-05T23:21:11.720Z,13.10
2023-05-05T23:23:39.306Z,13.10
2023-05-05T23:26:06.829Z,13.10
2023-05-05T23:28:34.294Z,13.00
2023-05-05T23:31:01.978Z,12.90
2023-05-05T23:33:29.813Z,12.90
2023-05-05T23:35:57.407Z,12.90
2023-05-05T23:38:25.299Z,12.90
2023-05-05T23:40:53.723Z,12.90
2023-05-05T23:43:21.362Z,12.90
2023-05-05T23:45:48.956Z,12.70
2023-05-05T23:48:16.512Z,12.70
2023-05-05T23:50:44.113Z,12.70
2023-05-05T23:53:11.938Z,12.70
2023-05-05T23:55:39.523Z,12.60
2023-05-05T23:58:07.517Z,12.50
